sensor_id;sensor_type;location;lat;lon;timestamp;P1;durP1;ratioP1;P2;durP2;ratioP2
74100;SDS011;62462;52.530;21.682;2023-03-14T00:00:59;13.98;;;6.22;;
74100;SDS011;62462;52.530;21.682;2023-03-14T00:03:25;15.00;;;6.15;;
74100;SDS011;62462;52.530;21.682;2023-03-14T00:05:53;12.30;;;6.75;;
74100;SDS011;62462;52.530;21.682;2023-03-14T00:08:18;18.92;;;6.93;;
74100;SDS011;62462;52.530;21.682;2023-03-14T00:10:46;16.67;;;6.55;;
74100;SDS011;62462;52.530;21.682;2023-03-14T00:13:12;14.30;;;6.45;;
74100;SDS011;62462;52.530;21.682;2023-03-14T00:15:38;11.18;;;5.95;;
74100;SDS011;62462;52.530;21.682;2023-03-14T00:18:03;11.88;;;5.85;;
74100;SDS011;62462;52.530;21.682;2023-03-14T00:20:29;16.80;;;5.20;;
74100;SDS011;62462;52.530;21.682;2023-03-14T00:22:55;12.65;;;5.65;;
74100;SDS011;62462;52.530;21.682;2023-03-14T00:25:20;10.55;;;5.28;;
74100;SDS011;62462;52.530;21.682;2023-03-14T00:27:46;12.05;;;5.13;;
74100;SDS011;62462;52.530;21.682;2023-03-14T00:30:12;11.82;;;5.82;;
74100;SDS011;62462;52.530;21.682;2023-03-14T00:32:38;11.88;;;5.60;;
74100;SDS011;62462;52.530;21.682;2023-03-14T00:35:03;10.43;;;5.57;;
74100;SDS011;62462;52.530;21.682;2023-03-14T00:37:29;11.23;;;5.55;;
74100;SDS011;62462;52.530;21.682;2023-03-14T00:39:55;11.40;;;5.40;;
74100;SDS011;62462;52.530;21.682;2023-03-14T00:42:21;12.02;;;5.47;;
74100;SDS011;62462;52.530;21.682;2023-03-14T00:44:47;14.02;;;5.45;;
74100;SDS011;62462;52.530;21.682;2023-03-14T00:47:12;13.45;;;5.13;;
74100;SDS011;62462;52.530;21.682;2023-03-14T00:49:38;8.77;;;4.93;;
74100;SDS011;62462;52.530;21.682;2023-03-14T00:52:04;11.35;;;5.00;;
74100;SDS011;62462;52.530;21.682;2023-03-14T00:54:30;10.73;;;5.00;;
74100;SDS011;62462;52.530;21.682;2023-03-14T00:56:55;10.20;;;5.55;;
74100;SDS011;62462;52.530;21.682;2023-03-14T00:59:21;13.27;;;5.57;;
74100;SDS011;62462;52.530;21.682;2023-03-14T01:01:47;10.10;;;5.32;;
74100;SDS011;62462;52.530;21.682;2023-03-14T01:04:12;8.68;;;4.60;;
74100;SDS011;62462;52.530;21.682;2023-03-14T01:06:38;11.18;;;5.05;;
74100;SDS011;62462;52.530;21.682;2023-03-14T01:09:04;10.63;;;5.10;;
74100;SDS011;62462;52.530;21.682;2023-03-14T01:11:31;10.00;;;4.85;;
74100;SDS011;62462;52.530;21.682;2023-03-14T01:13:58;9.18;;;5.20;;
74100;SDS011;62462;52.530;21.682;2023-03-14T01:16:25;9.30;;;4.43;;
74100;SDS011;62462;52.530;21.682;2023-03-14T01:18:52;11.20;;;4.93;;
74100;SDS011;62462;52.530;21.682;2023-03-14T01:21:19;10.70;;;5.47;;
74100;SDS011;62462;52.530;21.682;2023-03-14T01:23:51;9.55;;;5.10;;
74100;SDS011;62462;52.530;21.682;2023-03-14T01:26:20;9.52;;;5.28;;
74100;SDS011;62462;52.530;21.682;2023-03-14T01:28:47;10.48;;;4.60;;
74100;SDS011;62462;52.530;21.682;2023-03-14T01:31:14;8.55;;;4.72;;
74100;SDS011;62462;52.530;21.682;2023-03-14T01:33:40;8.73;;;4.60;;
74100;SDS011;62462;52.530;21.682;2023-03-14T01:36:07;10.73;;;5.20;;
74100;SDS011;62462;52.530;21.682;2023-03-14T01:38:34;8.98;;;4.25;;
74100;SDS011;62462;52.530;21.682;2023-03-14T01:41:01;9.98;;;4.65;;
74100;SDS011;62462;52.530;21.682;2023-03-14T01:43:28;9.48;;;4.43;;
74100;SDS011;62462;52.530;21.682;2023-03-14T01:51:18;7.03;;;4.38;;
74100;SDS011;62462;52.530;21.682;2023-03-14T01:56:41;13.75;;;4.70;;
74100;SDS011;62462;52.530;21.682;2023-03-14T01:59:10;11.18;;;4.40;;
74100;SDS011;62462;52.530;21.682;2023-03-14T02:01:36;9.43;;;4.78;;
74100;SDS011;62462;52.530;21.682;2023-03-14T02:04:04;7.53;;;4.00;;
74100;SDS011;62462;52.530;21.682;2023-03-14T02:06:34;8.20;;;4.57;;
74100;SDS011;62462;52.530;21.682;2023-03-14T02:09:24;7.45;;;4.32;;
74100;SDS011;62462;52.530;21.682;2023-03-14T02:11:50;7.07;;;3.70;;
74100;SDS011;62462;52.530;21.682;2023-03-14T02:14:32;7.22;;;4.45;;
74100;SDS011;62462;52.530;21.682;2023-03-14T02:17:00;6.80;;;3.83;;
74100;SDS011;62462;52.530;21.682;2023-03-14T02:19:41;8.07;;;4.63;;
74100;SDS011;62462;52.530;21.682;2023-03-14T02:22:30;7.88;;;4.57;;
74100;SDS011;62462;52.530;21.682;2023-03-14T02:27:41;10.05;;;4.47;;
74100;SDS011;62462;52.530;21.682;2023-03-14T02:30:26;9.70;;;4.45;;
74100;SDS011;62462;52.530;21.682;2023-03-14T02:32:54;8.07;;;4.60;;
74100;SDS011;62462;52.530;21.682;2023-03-14T02:35:37;10.85;;;5.10;;
74100;SDS011;62462;52.530;21.682;2023-03-14T02:38:11;8.90;;;4.70;;
74100;SDS011;62462;52.530;21.682;2023-03-14T02:41:03;9.82;;;4.85;;
74100;SDS011;62462;52.530;21.682;2023-03-14T02:43:29;9.55;;;4.68;;
74100;SDS011;62462;52.530;21.682;2023-03-14T02:45:54;9.30;;;4.22;;
74100;SDS011;62462;52.530;21.682;2023-03-14T02:48:24;8.35;;;4.57;;
74100;SDS011;62462;52.530;21.682;2023-03-14T02:50:56;9.20;;;4.40;;
74100;SDS011;62462;52.530;21.682;2023-03-14T02:53:28;11.05;;;4.35;;
74100;SDS011;62462;52.530;21.682;2023-03-14T02:55:59;9.85;;;4.45;;
74100;SDS011;62462;52.530;21.682;2023-03-14T02:58:25;7.57;;;4.63;;
74100;SDS011;62462;52.530;21.682;2023-03-14T03:00:52;8.13;;;4.57;;
74100;SDS011;62462;52.530;21.682;2023-03-14T03:03:18;11.07;;;4.70;;
74100;SDS011;62462;52.530;21.682;2023-03-14T03:05:47;9.18;;;4.30;;
74100;SDS011;62462;52.530;21.682;2023-03-14T03:08:15;9.27;;;4.43;;
74100;SDS011;62462;52.530;21.682;2023-03-14T03:10:41;8.75;;;4.07;;
74100;SDS011;62462;52.530;21.682;2023-03-14T03:13:07;11.32;;;4.40;;
74100;SDS011;62462;52.530;21.682;2023-03-14T03:15:32;7.65;;;4.20;;
74100;SDS011;62462;52.530;21.682;2023-03-14T03:17:58;8.95;;;4.28;;
74100;SDS011;62462;52.530;21.682;2023-03-14T03:20:24;10.20;;;4.40;;
74100;SDS011;62462;52.530;21.682;2023-03-14T03:22:50;7.63;;;3.83;;
74100;SDS011;62462;52.530;21.682;2023-03-14T03:25:16;8.13;;;4.13;;
74100;SDS011;62462;52.530;21.682;2023-03-14T03:27:42;8.82;;;4.25;;
74100;SDS011;62462;52.530;21.682;2023-03-14T03:30:08;11.02;;;4.43;;
74100;SDS011;62462;52.530;21.682;2023-03-14T03:32:34;10.43;;;4.70;;
74100;SDS011;62462;52.530;21.682;2023-03-14T03:35:01;8.77;;;4.43;;
74100;SDS011;62462;52.530;21.682;2023-03-14T03:37:30;9.38;;;4.70;;
74100;SDS011;62462;52.530;21.682;2023-03-14T03:39:56;7.97;;;4.35;;
74100;SDS011;62462;52.530;21.682;2023-03-14T03:42:22;8.00;;;4.30;;
74100;SDS011;62462;52.530;21.682;2023-03-14T03:44:48;7.55;;;3.80;;
74100;SDS011;62462;52.530;21.682;2023-03-14T03:47:14;7.53;;;4.07;;
74100;SDS011;62462;52.530;21.682;2023-03-14T03:49:40;10.05;;;4.38;;
74100;SDS011;62462;52.530;21.682;2023-03-14T03:52:06;10.32;;;4.88;;
74100;SDS011;62462;52.530;21.682;2023-03-14T03:54:32;9.70;;;4.05;;
74100;SDS011;62462;52.530;21.682;2023-03-14T03:56:58;10.95;;;4.93;;
74100;SDS011;62462;52.530;21.682;2023-03-14T03:59:23;9.20;;;4.35;;
74100;SDS011;62462;52.530;21.682;2023-03-14T04:01:49;7.28;;;4.40;;
74100;SDS011;62462;52.530;21.682;2023-03-14T04:04:15;10.15;;;4.45;;
74100;SDS011;62462;52.530;21.682;2023-03-14T04:06:40;11.15;;;4.05;;
74100;SDS011;62462;52.530;21.682;2023-03-14T04:09:07;8.52;;;4.30;;
74100;SDS011;62462;52.530;21.682;2023-03-14T04:11:36;8.45;;;4.50;;
74100;SDS011;62462;52.530;21.682;2023-03-14T04:14:02;9.02;;;4.65;;
74100;SDS011;62462;52.530;21.682;2023-03-14T04:16:29;8.02;;;4.20;;
74100;SDS011;62462;52.530;21.682;2023-03-14T04:18:56;7.55;;;4.40;;
74100;SDS011;62462;52.530;21.682;2023-03-14T04:21:22;12.00;;;4.30;;
74100;SDS011;62462;52.530;21.682;2023-03-14T04:23:49;8.30;;;4.03;;
74100;SDS011;62462;52.530;21.682;2023-03-14T04:26:14;7.82;;;4.45;;
74100;SDS011;62462;52.530;21.682;2023-03-14T04:28:40;8.05;;;4.30;;
74100;SDS011;62462;52.530;21.682;2023-03-14T04:31:07;7.82;;;4.40;;
74100;SDS011;62462;52.530;21.682;2023-03-14T04:33:37;9.38;;;4.93;;
74100;SDS011;62462;52.530;21.682;2023-03-14T04:36:04;7.00;;;3.92;;
74100;SDS011;62462;52.530;21.682;2023-03-14T04:38:31;7.00;;;4.05;;
74100;SDS011;62462;52.530;21.682;2023-03-14T04:40:57;7.72;;;4.53;;
74100;SDS011;62462;52.530;21.682;2023-03-14T04:43:24;8.70;;;4.50;;
74100;SDS011;62462;52.530;21.682;2023-03-14T04:45:51;8.18;;;4.72;;
74100;SDS011;62462;52.530;21.682;2023-03-14T04:48:20;7.80;;;4.30;;
74100;SDS011;62462;52.530;21.682;2023-03-14T04:50:46;12.45;;;4.38;;
74100;SDS011;62462;52.530;21.682;2023-03-14T04:53:13;9.15;;;4.68;;
74100;SDS011;62462;52.530;21.682;2023-03-14T04:55:39;10.27;;;4.55;;
74100;SDS011;62462;52.530;21.682;2023-03-14T04:58:04;9.25;;;4.20;;
74100;SDS011;62462;52.530;21.682;2023-03-14T05:00:30;8.07;;;4.63;;
74100;SDS011;62462;52.530;21.682;2023-03-14T05:02:56;6.57;;;4.25;;
74100;SDS011;62462;52.530;21.682;2023-03-14T05:05:22;9.32;;;4.70;;
74100;SDS011;62462;52.530;21.682;2023-03-14T05:07:48;7.82;;;4.30;;
74100;SDS011;62462;52.530;21.682;2023-03-14T05:10:13;10.32;;;4.43;;
74100;SDS011;62462;52.530;21.682;2023-03-14T05:12:39;7.00;;;4.25;;
74100;SDS011;62462;52.530;21.682;2023-03-14T05:15:05;8.32;;;4.60;;
74100;SDS011;62462;52.530;21.682;2023-03-14T05:17:34;7.47;;;4.68;;
74100;SDS011;62462;52.530;21.682;2023-03-14T05:20:00;8.30;;;4.78;;
74100;SDS011;62462;52.530;21.682;2023-03-14T05:22:27;5.65;;;3.90;;
74100;SDS011;62462;52.530;21.682;2023-03-14T05:24:53;8.90;;;4.32;;
74100;SDS011;62462;52.530;21.682;2023-03-14T05:27:22;7.78;;;4.38;;
74100;SDS011;62462;52.530;21.682;2023-03-14T05:29:48;8.45;;;4.43;;
74100;SDS011;62462;52.530;21.682;2023-03-14T05:32:13;8.85;;;4.38;;
74100;SDS011;62462;52.530;21.682;2023-03-14T05:34:39;7.80;;;4.63;;
74100;SDS011;62462;52.530;21.682;2023-03-14T05:37:05;6.18;;;3.78;;
74100;SDS011;62462;52.530;21.682;2023-03-14T05:39:30;7.68;;;4.10;;
74100;SDS011;62462;52.530;21.682;2023-03-14T05:41:56;6.93;;;4.20;;
74100;SDS011;62462;52.530;21.682;2023-03-14T05:44:22;6.38;;;3.78;;
74100;SDS011;62462;52.530;21.682;2023-03-14T05:46:48;9.73;;;4.35;;
74100;SDS011;62462;52.530;21.682;2023-03-14T05:49:13;6.78;;;3.78;;
74100;SDS011;62462;52.530;21.682;2023-03-14T05:51:39;7.80;;;4.15;;
74100;SDS011;62462;52.530;21.682;2023-03-14T05:54:05;10.95;;;4.45;;
74100;SDS011;62462;52.530;21.682;2023-03-14T05:56:31;6.97;;;3.95;;
74100;SDS011;62462;52.530;21.682;2023-03-14T05:58:57;8.13;;;3.97;;
74100;SDS011;62462;52.530;21.682;2023-03-14T06:01:23;10.23;;;4.50;;
74100;SDS011;62462;52.530;21.682;2023-03-14T06:03:49;7.80;;;4.30;;
74100;SDS011;62462;52.530;21.682;2023-03-14T06:06:14;6.72;;;4.28;;
74100;SDS011;62462;52.530;21.682;2023-03-14T06:08:41;6.15;;;3.85;;
74100;SDS011;62462;52.530;21.682;2023-03-14T06:11:07;5.90;;;3.95;;
74100;SDS011;62462;52.530;21.682;2023-03-14T06:13:34;7.43;;;4.13;;
74100;SDS011;62462;52.530;21.682;2023-03-14T06:15:59;7.30;;;4.10;;
74100;SDS011;62462;52.530;21.682;2023-03-14T06:18:25;6.82;;;4.07;;
74100;SDS011;62462;52.530;21.682;2023-03-14T06:20:54;8.32;;;4.30;;
74100;SDS011;62462;52.530;21.682;2023-03-14T06:23:20;6.60;;;3.95;;
74100;SDS011;62462;52.530;21.682;2023-03-14T06:25:47;5.65;;;3.80;;
74100;SDS011;62462;52.530;21.682;2023-03-14T06:28:12;6.80;;;3.80;;
74100;SDS011;62462;52.530;21.682;2023-03-14T06:30:38;8.55;;;4.05;;
74100;SDS011;62462;52.530;21.682;2023-03-14T06:33:04;7.55;;;4.25;;
74100;SDS011;62462;52.530;21.682;2023-03-14T06:35:30;7.75;;;3.80;;
74100;SDS011;62462;52.530;21.682;2023-03-14T06:37:55;7.32;;;4.28;;
74100;SDS011;62462;52.530;21.682;2023-03-14T06:40:21;5.15;;;3.35;;
74100;SDS011;62462;52.530;21.682;2023-03-14T06:42:47;7.95;;;4.65;;
74100;SDS011;62462;52.530;21.682;2023-03-14T06:45:13;13.77;;;6.18;;
74100;SDS011;62462;52.530;21.682;2023-03-14T06:47:39;10.73;;;6.03;;
74100;SDS011;62462;52.530;21.682;2023-03-14T06:50:05;11.30;;;6.43;;
74100;SDS011;62462;52.530;21.682;2023-03-14T06:52:32;10.57;;;4.53;;
74100;SDS011;62462;52.530;21.682;2023-03-14T06:54:58;7.28;;;4.32;;
74100;SDS011;62462;52.530;21.682;2023-03-14T06:57:24;7.07;;;4.20;;
74100;SDS011;62462;52.530;21.682;2023-03-14T06:59:50;7.13;;;3.83;;
74100;SDS011;62462;52.530;21.682;2023-03-14T07:02:16;10.07;;;4.38;;
74100;SDS011;62462;52.530;21.682;2023-03-14T07:04:41;8.52;;;4.20;;
74100;SDS011;62462;52.530;21.682;2023-03-14T07:07:07;7.93;;;3.85;;
74100;SDS011;62462;52.530;21.682;2023-03-14T07:09:33;7.07;;;3.83;;
74100;SDS011;62462;52.530;21.682;2023-03-14T07:12:00;10.00;;;5.07;;
74100;SDS011;62462;52.530;21.682;2023-03-14T07:14:26;10.15;;;5.18;;
74100;SDS011;62462;52.530;21.682;2023-03-14T07:16:51;7.53;;;3.83;;
74100;SDS011;62462;52.530;21.682;2023-03-14T07:19:17;8.60;;;5.07;;
74100;SDS011;62462;52.530;21.682;2023-03-14T07:21:43;7.78;;;4.60;;
74100;SDS011;62462;52.530;21.682;2023-03-14T07:24:09;8.52;;;3.85;;
74100;SDS011;62462;52.530;21.682;2023-03-14T07:26:34;7.63;;;4.35;;
74100;SDS011;62462;52.530;21.682;2023-03-14T07:29:00;6.78;;;3.60;;
74100;SDS011;62462;52.530;21.682;2023-03-14T07:31:28;7.47;;;4.75;;
74100;SDS011;62462;52.530;21.682;2023-03-14T07:33:54;7.20;;;3.95;;
74100;SDS011;62462;52.530;21.682;2023-03-14T07:36:20;7.40;;;3.58;;
74100;SDS011;62462;52.530;21.682;2023-03-14T07:38:46;11.10;;;3.95;;
74100;SDS011;62462;52.530;21.682;2023-03-14T07:41:12;7.97;;;3.60;;
74100;SDS011;62462;52.530;21.682;2023-03-14T07:43:39;5.25;;;3.17;;
74100;SDS011;62462;52.530;21.682;2023-03-14T07:46:05;5.70;;;3.10;;
74100;SDS011;62462;52.530;21.682;2023-03-14T07:48:32;5.50;;;3.13;;
74100;SDS011;62462;52.530;21.682;2023-03-14T07:51:16;8.30;;;4.00;;
74100;SDS011;62462;52.530;21.682;2023-03-14T07:53:43;5.15;;;3.70;;
74100;SDS011;62462;52.530;21.682;2023-03-14T07:56:09;4.78;;;3.40;;
74100;SDS011;62462;52.530;21.682;2023-03-14T07:58:35;6.53;;;3.67;;
74100;SDS011;62462;52.530;21.682;2023-03-14T08:01:01;6.60;;;3.40;;
74100;SDS011;62462;52.530;21.682;2023-03-14T08:03:27;5.53;;;3.60;;
74100;SDS011;62462;52.530;21.682;2023-03-14T08:05:52;6.28;;;3.67;;
74100;SDS011;62462;52.530;21.682;2023-03-14T08:08:18;6.25;;;3.80;;
74100;SDS011;62462;52.530;21.682;2023-03-14T08:10:44;5.40;;;3.47;;
74100;SDS011;62462;52.530;21.682;2023-03-14T08:13:11;6.57;;;3.30;;
74100;SDS011;62462;52.530;21.682;2023-03-14T08:15:37;5.82;;;3.85;;
74100;SDS011;62462;52.530;21.682;2023-03-14T08:18:03;6.70;;;3.38;;
74100;SDS011;62462;52.530;21.682;2023-03-14T08:20:30;6.43;;;3.63;;
74100;SDS011;62462;52.530;21.682;2023-03-14T08:22:59;7.43;;;3.85;;
74100;SDS011;62462;52.530;21.682;2023-03-14T08:25:26;7.95;;;3.47;;
74100;SDS011;62462;52.530;21.682;2023-03-14T08:27:53;6.60;;;3.40;;
74100;SDS011;62462;52.530;21.682;2023-03-14T08:30:20;6.35;;;3.75;;
74100;SDS011;62462;52.530;21.682;2023-03-14T08:32:46;7.55;;;4.00;;
74100;SDS011;62462;52.530;21.682;2023-03-14T08:35:12;4.93;;;3.28;;
74100;SDS011;62462;52.530;21.682;2023-03-14T08:37:39;12.32;;;4.18;;
74100;SDS011;62462;52.530;21.682;2023-03-14T08:40:05;6.32;;;3.15;;
74100;SDS011;62462;52.530;21.682;2023-03-14T08:42:34;7.50;;;3.50;;
74100;SDS011;62462;52.530;21.682;2023-03-14T08:45:01;8.40;;;3.35;;
74100;SDS011;62462;52.530;21.682;2023-03-14T08:47:27;6.43;;;3.40;;
74100;SDS011;62462;52.530;21.682;2023-03-14T08:49:54;7.97;;;3.22;;
74100;SDS011;62462;52.530;21.682;2023-03-14T08:52:20;5.80;;;3.08;;
74100;SDS011;62462;52.530;21.682;2023-03-14T08:54:46;8.38;;;3.13;;
74100;SDS011;62462;52.530;21.682;2023-03-14T08:57:12;7.60;;;3.30;;
74100;SDS011;62462;52.530;21.682;2023-03-14T08:59:38;6.05;;;2.83;;
74100;SDS011;62462;52.530;21.682;2023-03-14T09:02:04;4.70;;;2.80;;
74100;SDS011;62462;52.530;21.682;2023-03-14T09:04:31;5.25;;;2.97;;
74100;SDS011;62462;52.530;21.682;2023-03-14T09:06:58;6.57;;;3.15;;
74100;SDS011;62462;52.530;21.682;2023-03-14T09:09:25;5.97;;;2.92;;
74100;SDS011;62462;52.530;21.682;2023-03-14T09:11:55;6.30;;;3.00;;
74100;SDS011;62462;52.530;21.682;2023-03-14T09:14:21;5.30;;;3.30;;
74100;SDS011;62462;52.530;21.682;2023-03-14T09:16:48;6.90;;;3.30;;
74100;SDS011;62462;52.530;21.682;2023-03-14T09:19:14;12.02;;;3.17;;
74100;SDS011;62462;52.530;21.682;2023-03-14T09:21:40;6.65;;;3.30;;
74100;SDS011;62462;52.530;21.682;2023-03-14T09:24:06;5.55;;;2.88;;
74100;SDS011;62462;52.530;21.682;2023-03-14T09:26:32;4.05;;;2.45;;
74100;SDS011;62462;52.530;21.682;2023-03-14T09:28:58;5.72;;;2.80;;
74100;SDS011;62462;52.530;21.682;2023-03-14T09:31:24;4.25;;;2.63;;
74100;SDS011;62462;52.530;21.682;2023-03-14T09:33:50;6.43;;;2.85;;
74100;SDS011;62462;52.530;21.682;2023-03-14T09:36:15;7.45;;;2.80;;
74100;SDS011;62462;52.530;21.682;2023-03-14T09:38:41;6.25;;;3.13;;
74100;SDS011;62462;52.530;21.682;2023-03-14T09:41:41;5.70;;;2.60;;
74100;SDS011;62462;52.530;21.682;2023-03-14T09:46:35;3.80;;;3.00;;
74100;SDS011;62462;52.530;21.682;2023-03-14T09:49:08;3.63;;;2.60;;
74100;SDS011;62462;52.530;21.682;2023-03-14T09:51:41;7.57;;;3.03;;
74100;SDS011;62462;52.530;21.682;2023-03-14T09:54:14;6.28;;;3.05;;
74100;SDS011;62462;52.530;21.682;2023-03-14T09:56:51;8.48;;;3.05;;
74100;SDS011;62462;52.530;21.682;2023-03-14T09:59:18;9.13;;;3.05;;
74100;SDS011;62462;52.530;21.682;2023-03-14T10:01:45;7.72;;;2.88;;
74100;SDS011;62462;52.530;21.682;2023-03-14T10:04:13;6.72;;;3.05;;
74100;SDS011;62462;52.530;21.682;2023-03-14T10:06:42;9.18;;;3.15;;
74100;SDS011;62462;52.530;21.682;2023-03-14T10:09:11;7.00;;;3.40;;
74100;SDS011;62462;52.530;21.682;2023-03-14T10:11:44;6.45;;;3.08;;
74100;SDS011;62462;52.530;21.682;2023-03-14T10:14:10;6.40;;;2.92;;
74100;SDS011;62462;52.530;21.682;2023-03-14T10:16:42;4.63;;;2.58;;
74100;SDS011;62462;52.530;21.682;2023-03-14T10:19:11;6.88;;;2.95;;
74100;SDS011;62462;52.530;21.682;2023-03-14T10:21:41;7.07;;;2.53;;
74100;SDS011;62462;52.530;21.682;2023-03-14T10:26:47;5.95;;;2.45;;
74100;SDS011;62462;52.530;21.682;2023-03-14T10:29:15;8.05;;;2.88;;
74100;SDS011;62462;52.530;21.682;2023-03-14T10:31:48;9.02;;;2.83;;
74100;SDS011;62462;52.530;21.682;2023-03-14T10:34:38;8.13;;;2.90;;
74100;SDS011;62462;52.530;21.682;2023-03-14T10:37:17;5.20;;;2.80;;
74100;SDS011;62462;52.530;21.682;2023-03-14T10:39:51;6.10;;;2.80;;
74100;SDS011;62462;52.530;21.682;2023-03-14T10:42:28;5.32;;;2.50;;
74100;SDS011;62462;52.530;21.682;2023-03-14T10:45:45;6.43;;;2.80;;
74100;SDS011;62462;52.530;21.682;2023-03-14T10:47:51;7.18;;;2.55;;
74100;SDS011;62462;52.530;21.682;2023-03-14T10:52:54;6.05;;;2.88;;
74100;SDS011;62462;52.530;21.682;2023-03-14T10:55:22;6.22;;;2.72;;
74100;SDS011;62462;52.530;21.682;2023-03-14T10:57:50;6.80;;;2.70;;
74100;SDS011;62462;52.530;21.682;2023-03-14T11:00:20;8.18;;;3.00;;
74100;SDS011;62462;52.530;21.682;2023-03-14T11:02:58;5.28;;;3.00;;
74100;SDS011;62462;52.530;21.682;2023-03-14T11:11:26;4.32;;;2.63;;
74100;SDS011;62462;52.530;21.682;2023-03-14T11:14:12;6.07;;;3.08;;
74100;SDS011;62462;52.530;21.682;2023-03-14T11:27:55;5.85;;;2.90;;
74100;SDS011;62462;52.530;21.682;2023-03-14T11:30:32;6.03;;;3.10;;
74100;SDS011;62462;52.530;21.682;2023-03-14T11:33:24;5.78;;;2.80;;
74100;SDS011;62462;52.530;21.682;2023-03-14T11:38:32;5.38;;;2.67;;
74100;SDS011;62462;52.530;21.682;2023-03-14T11:40:59;5.55;;;2.50;;
74100;SDS011;62462;52.530;21.682;2023-03-14T11:43:46;6.68;;;2.70;;
74100;SDS011;62462;52.530;21.682;2023-03-14T11:46:21;9.27;;;2.88;;
74100;SDS011;62462;52.530;21.682;2023-03-14T11:49:08;6.20;;;2.38;;
74100;SDS011;62462;52.530;21.682;2023-03-14T11:51:41;7.43;;;2.97;;
74100;SDS011;62462;52.530;21.682;2023-03-14T11:54:14;5.03;;;2.78;;
74100;SDS011;62462;52.530;21.682;2023-03-14T11:56:59;5.80;;;2.65;;
74100;SDS011;62462;52.530;21.682;2023-03-14T11:59:33;6.90;;;3.38;;
74100;SDS011;62462;52.530;21.682;2023-03-14T12:10:39;5.60;;;2.40;;
74100;SDS011;62462;52.530;21.682;2023-03-14T12:13:10;6.38;;;2.60;;
74100;SDS011;62462;52.530;21.682;2023-03-14T12:15:39;5.88;;;2.17;;
74100;SDS011;62462;52.530;21.682;2023-03-14T12:18:18;6.25;;;2.40;;
74100;SDS011;62462;52.530;21.682;2023-03-14T12:20:51;4.03;;;2.40;;
74100;SDS011;62462;52.530;21.682;2023-03-14T12:23:19;5.43;;;2.90;;
74100;SDS011;62462;52.530;21.682;2023-03-14T12:25:45;3.97;;;2.40;;
74100;SDS011;62462;52.530;21.682;2023-03-14T12:28:21;6.18;;;2.40;;
74100;SDS011;62462;52.530;21.682;2023-03-14T12:30:55;4.45;;;2.50;;
74100;SDS011;62462;52.530;21.682;2023-03-14T12:33:26;5.15;;;2.58;;
74100;SDS011;62462;52.530;21.682;2023-03-14T12:36:03;4.10;;;2.47;;
74100;SDS011;62462;52.530;21.682;2023-03-14T12:43:52;4.80;;;2.92;;
74100;SDS011;62462;52.530;21.682;2023-03-14T12:48:44;4.32;;;2.63;;
74100;SDS011;62462;52.530;21.682;2023-03-14T12:51:16;4.70;;;2.30;;
74100;SDS011;62462;52.530;21.682;2023-03-14T12:58:53;5.93;;;2.60;;
74100;SDS011;62462;52.530;21.682;2023-03-14T13:04:49;6.65;;;3.05;;
74100;SDS011;62462;52.530;21.682;2023-03-14T13:07:31;6.30;;;3.15;;
74100;SDS011;62462;52.530;21.682;2023-03-14T13:13:09;7.68;;;3.30;;
74100;SDS011;62462;52.530;21.682;2023-03-14T13:15:47;7.05;;;2.88;;
74100;SDS011;62462;52.530;21.682;2023-03-14T13:18:18;6.40;;;3.17;;
74100;SDS011;62462;52.530;21.682;2023-03-14T13:21:36;6.30;;;3.55;;
74100;SDS011;62462;52.530;21.682;2023-03-14T13:23:54;7.43;;;3.58;;
74100;SDS011;62462;52.530;21.682;2023-03-14T13:26:22;5.10;;;2.88;;
74100;SDS011;62462;52.530;21.682;2023-03-14T13:28:51;7.38;;;2.92;;
74100;SDS011;62462;52.530;21.682;2023-03-14T13:31:21;4.78;;;3.10;;
74100;SDS011;62462;52.530;21.682;2023-03-14T13:33:58;6.72;;;2.90;;
74100;SDS011;62462;52.530;21.682;2023-03-14T13:36:30;6.35;;;2.90;;
74100;SDS011;62462;52.530;21.682;2023-03-14T13:38:57;7.78;;;2.70;;
74100;SDS011;62462;52.530;21.682;2023-03-14T13:41:24;4.85;;;2.58;;
74100;SDS011;62462;52.530;21.682;2023-03-14T13:43:51;5.43;;;2.60;;
74100;SDS011;62462;52.530;21.682;2023-03-14T13:46:20;7.18;;;2.90;;
74100;SDS011;62462;52.530;21.682;2023-03-14T13:48:48;7.00;;;3.10;;
74100;SDS011;62462;52.530;21.682;2023-03-14T13:51:17;6.25;;;3.10;;
74100;SDS011;62462;52.530;21.682;2023-03-14T13:53:46;6.05;;;2.90;;
74100;SDS011;62462;52.530;21.682;2023-03-14T13:56:15;14.40;;;3.50;;
74100;SDS011;62462;52.530;21.682;2023-03-14T13:58:42;9.70;;;3.70;;
74100;SDS011;62462;52.530;21.682;2023-03-14T14:03:38;9.40;;;3.83;;
74100;SDS011;62462;52.530;21.682;2023-03-14T14:08:52;9.90;;;4.68;;
74100;SDS011;62462;52.530;21.682;2023-03-14T14:11:21;9.27;;;4.80;;
74100;SDS011;62462;52.530;21.682;2023-03-14T14:13:57;10.52;;;5.43;;
74100;SDS011;62462;52.530;21.682;2023-03-14T14:16:24;10.85;;;5.22;;
74100;SDS011;62462;52.530;21.682;2023-03-14T14:18:52;10.68;;;5.00;;
74100;SDS011;62462;52.530;21.682;2023-03-14T14:21:20;8.13;;;4.68;;
74100;SDS011;62462;52.530;21.682;2023-03-14T14:23:46;12.88;;;4.40;;
74100;SDS011;62462;52.530;21.682;2023-03-14T14:26:17;10.80;;;4.75;;
74100;SDS011;62462;52.530;21.682;2023-03-14T14:28:44;8.32;;;4.47;;
74100;SDS011;62462;52.530;21.682;2023-03-14T14:36:41;12.60;;;5.05;;
74100;SDS011;62462;52.530;21.682;2023-03-14T14:39:20;11.32;;;4.82;;
74100;SDS011;62462;52.530;21.682;2023-03-14T14:41:51;11.18;;;5.43;;
74100;SDS011;62462;52.530;21.682;2023-03-14T14:44:26;9.73;;;5.43;;
74100;SDS011;62462;52.530;21.682;2023-03-14T14:46:58;10.70;;;5.07;;
74100;SDS011;62462;52.530;21.682;2023-03-14T14:49:30;10.00;;;4.85;;
74100;SDS011;62462;52.530;21.682;2023-03-14T14:52:05;8.93;;;4.88;;
74100;SDS011;62462;52.530;21.682;2023-03-14T14:54:45;11.57;;;5.15;;
74100;SDS011;62462;52.530;21.682;2023-03-14T14:57:18;8.55;;;5.10;;
74100;SDS011;62462;52.530;21.682;2023-03-14T14:59:48;9.93;;;5.38;;
74100;SDS011;62462;52.530;21.682;2023-03-14T15:02:27;10.25;;;5.68;;
74100;SDS011;62462;52.530;21.682;2023-03-14T15:04:59;11.13;;;6.15;;
74100;SDS011;62462;52.530;21.682;2023-03-14T15:07:25;11.52;;;5.78;;
74100;SDS011;62462;52.530;21.682;2023-03-14T15:09:51;12.82;;;5.88;;
74100;SDS011;62462;52.530;21.682;2023-03-14T15:12:17;11.65;;;6.13;;
74100;SDS011;62462;52.530;21.682;2023-03-14T15:14:43;13.13;;;6.38;;
74100;SDS011;62462;52.530;21.682;2023-03-14T15:17:10;14.20;;;6.05;;
74100;SDS011;62462;52.530;21.682;2023-03-14T15:19:37;12.18;;;5.40;;
74100;SDS011;62462;52.530;21.682;2023-03-14T15:22:05;10.82;;;5.85;;
74100;SDS011;62462;52.530;21.682;2023-03-14T15:24:38;9.85;;;5.93;;
74100;SDS011;62462;52.530;21.682;2023-03-14T15:27:05;12.93;;;6.55;;
74100;SDS011;62462;52.530;21.682;2023-03-14T15:29:35;16.08;;;8.88;;
74100;SDS011;62462;52.530;21.682;2023-03-14T15:32:02;17.52;;;10.52;;
74100;SDS011;62462;52.530;21.682;2023-03-14T15:34:28;20.63;;;11.93;;
74100;SDS011;62462;52.530;21.682;2023-03-14T15:36:54;18.05;;;10.18;;
74100;SDS011;62462;52.530;21.682;2023-03-14T15:39:20;13.95;;;7.35;;
74100;SDS011;62462;52.530;21.682;2023-03-14T15:41:45;10.30;;;6.15;;
74100;SDS011;62462;52.530;21.682;2023-03-14T15:44:11;12.48;;;7.00;;
74100;SDS011;62462;52.530;21.682;2023-03-14T15:46:37;10.50;;;5.82;;
74100;SDS011;62462;52.530;21.682;2023-03-14T15:49:03;13.27;;;6.35;;
74100;SDS011;62462;52.530;21.682;2023-03-14T15:51:29;12.38;;;5.72;;
74100;SDS011;62462;52.530;21.682;2023-03-14T15:53:55;15.07;;;5.75;;
74100;SDS011;62462;52.530;21.682;2023-03-14T15:56:21;11.55;;;5.65;;